Accueil
METAR-TAF:

METAR-TAF

Aéroports :

Aéroport de Santorin

Santorin, Grèce

latitude: 36-24N, longitude: 025-29E, altitude: 38 m

Observation

Le bulletin a été fait il y a 31 minutes, à 19:50 UTC
Vent 5 kt de ouest/sud-ouest
Température 11°C
Humidité 82%
Pression 1017 hPa
Visibilité 10 km ou plus
Quelques nuages à une hauteur de 2500 ft

METAR: LGSR 191950Z 24005KT 9999 FEW025 11/08 Q1017

Heure: 22:21 (20:21 UTC)

Prévision

Le bulletin a été fait il y a 3 heures et 21 minutes, à 17:00 UTC
Prévision valable du 19 à 18 UTC au 20 à 18 UTC
Vent 14 kt de ouest
Visibilité 10 km ou plus
Nuages épars à une hauteur de 2000 ft
Evoluant progressivement
du 20 à 00 UTC au 20 à 02 UTC
Vent 15 kt de ouest/sud-ouest avec des rafales jusqu'à 28 kt
Temporairement
du 20 à 06 UTC au 20 à 18 UTC
Nuages fragmentés à une hauteur de 2000 ft

TAF: LGSR 191700Z 1918/2018 26014KT 9999 SCT020 BECMG 2000/2002 25015G28KT TEMPO 2006/2018 BKN020

Observations et prévisions météorologiques de plus de 4000 aéroports (messages METAR et TAF).

Les stations disponibles sont représentées par des disques jaunes et rouges sur la carte.

Passer la souris dessus pour voir le nom de la station.

Cliquer dessus pour voir les observations et prévisions météorologiques.

Pour changer de carte: cliquez sur les boutons verts avec une croix noire pour zoomer, sur le bouton vert avec un tiret pour effectuer un zoom arrière, ou sur les flèches vertes pour les cartes adjacentes.


METAR-TAF: